sensor_id;sensor_type;location;lat;lon;timestamp;pressure;altitude;pressure_sealevel;temperature;humidity
21588;BME280;10956;48.878;13.316;2022-12-29T00:01:49;94124.91;;;1.12;100.00
21588;BME280;10956;48.878;13.316;2022-12-29T00:04:14;94124.97;;;0.99;100.00
21588;BME280;10956;48.878;13.316;2022-12-29T00:06:41;94122.97;;;1.01;100.00
21588;BME280;10956;48.878;13.316;2022-12-29T00:09:07;94117.41;;;0.97;100.00
21588;BME280;10956;48.878;13.316;2022-12-29T00:11:32;94119.38;;;1.02;100.00
21588;BME280;10956;48.878;13.316;2022-12-29T00:13:57;94109.16;;;1.07;100.00
21588;BME280;10956;48.878;13.316;2022-12-29T00:16:43;94110.34;;;1.11;100.00
21588;BME280;10956;48.878;13.316;2022-12-29T00:19:10;94103.72;;;1.15;100.00
21588;BME280;10956;48.878;13.316;2022-12-29T00:21:56;94105.09;;;1.17;100.00
21588;BME280;10956;48.878;13.316;2022-12-29T00:24:40;94098.13;;;1.18;100.00
21588;BME280;10956;48.878;13.316;2022-12-29T00:27:26;94098.13;;;1.18;100.00
21588;BME280;10956;48.878;13.316;2022-12-29T00:30:11;94095.50;;;1.18;100.00
21588;BME280;10956;48.878;13.316;2022-12-29T00:32:55;94092.50;;;1.21;100.00
21588;BME280;10956;48.878;13.316;2022-12-29T00:35:45;94090.50;;;1.23;100.00
21588;BME280;10956;48.878;13.316;2022-12-29T00:38:12;94090.44;;;1.29;100.00
21588;BME280;10956;48.878;13.316;2022-12-29T00:40:56;94095.22;;;1.33;100.00
21588;BME280;10956;48.878;13.316;2022-12-29T00:43:40;94097.19;;;1.37;100.00
21588;BME280;10956;48.878;13.316;2022-12-29T00:46:24;94097.56;;;1.41;100.00
21588;BME280;10956;48.878;13.316;2022-12-29T00:48:50;94089.56;;;1.42;100.00
21588;BME280;10956;48.878;13.316;2022-12-29T00:51:35;94096.19;;;1.38;100.00
21588;BME280;10956;48.878;13.316;2022-12-29T00:54:00;94093.38;;;1.40;100.00
21588;BME280;10956;48.878;13.316;2022-12-29T00:56:25;94096.75;;;1.40;100.00
21588;BME280;10956;48.878;13.316;2022-12-29T00:58:51;94089.22;;;1.32;100.00
21588;BME280;10956;48.878;13.316;2022-12-29T01:01:16;94092.28;;;1.22;100.00
21588;BME280;10956;48.878;13.316;2022-12-29T01:03:42;94097.75;;;1.14;100.00
21588;BME280;10956;48.878;13.316;2022-12-29T01:06:09;94095.09;;;1.21;100.00
21588;BME280;10956;48.878;13.316;2022-12-29T01:08:35;94098.44;;;1.28;100.00
21588;BME280;10956;48.878;13.316;2022-12-29T01:11:05;94095.00;;;1.34;100.00
21588;BME280;10956;48.878;13.316;2022-12-29T01:13:31;94100.34;;;1.39;100.00
21588;BME280;10956;48.878;13.316;2022-12-29T01:15:56;94101.09;;;1.46;100.00
21588;BME280;10956;48.878;13.316;2022-12-29T01:18:22;94104.50;;;1.47;100.00
21588;BME280;10956;48.878;13.316;2022-12-29T01:20:48;94098.72;;;1.45;100.00
21588;BME280;10956;48.878;13.316;2022-12-29T01:23:14;94098.78;;;1.38;100.00
21588;BME280;10956;48.878;13.316;2022-12-29T01:25:40;94090.81;;;1.33;100.00
21588;BME280;10956;48.878;13.316;2022-12-29T01:28:05;94094.41;;;1.32;100.00
21588;BME280;10956;48.878;13.316;2022-12-29T01:30:34;94098.22;;;1.29;100.00
21588;BME280;10956;48.878;13.316;2022-12-29T01:33:00;94094.03;;;1.28;100.00
21588;BME280;10956;48.878;13.316;2022-12-29T01:35:25;94097.00;;;1.32;100.00
21588;BME280;10956;48.878;13.316;2022-12-29T01:37:51;94100.47;;;1.26;100.00
21588;BME280;10956;48.878;13.316;2022-12-29T01:40:16;94097.31;;;1.17;100.00
21588;BME280;10956;48.878;13.316;2022-12-29T01:42:42;94097.09;;;1.19;100.00
21588;BME280;10956;48.878;13.316;2022-12-29T01:45:11;94091.53;;;1.15;100.00
21588;BME280;10956;48.878;13.316;2022-12-29T01:47:44;94095.94;;;1.15;100.00
21588;BME280;10956;48.878;13.316;2022-12-29T01:50:16;94099.72;;;1.19;100.00
21588;BME280;10956;48.878;13.316;2022-12-29T01:52:56;94089.91;;;1.21;100.00
21588;BME280;10956;48.878;13.316;2022-12-29T01:55:24;94089.63;;;1.04;100.00
21588;BME280;10956;48.878;13.316;2022-12-29T01:57:52;94085.06;;;1.00;100.00
21588;BME280;10956;48.878;13.316;2022-12-29T02:00:20;94086.66;;;1.01;100.00
21588;BME280;10956;48.878;13.316;2022-12-29T02:02:49;94081.47;;;1.01;100.00
21588;BME280;10956;48.878;13.316;2022-12-29T02:05:40;94076.66;;;1.04;100.00
21588;BME280;10956;48.878;13.316;2022-12-29T02:08:08;94071.25;;;1.06;100.00
21588;BME280;10956;48.878;13.316;2022-12-29T02:10:35;94074.25;;;1.03;100.00
21588;BME280;10956;48.878;13.316;2022-12-29T02:13:01;94061.88;;;1.05;100.00
21588;BME280;10956;48.878;13.316;2022-12-29T02:18:25;94060.28;;;1.04;100.00
21588;BME280;10956;48.878;13.316;2022-12-29T02:24:28;94063.03;;;1.09;100.00
21588;BME280;10956;48.878;13.316;2022-12-29T02:29:55;94055.09;;;1.04;100.00
21588;BME280;10956;48.878;13.316;2022-12-29T02:34:59;94054.38;;;0.90;100.00
21588;BME280;10956;48.878;13.316;2022-12-29T02:37:36;94052.75;;;0.95;100.00
21588;BME280;10956;48.878;13.316;2022-12-29T02:42:56;94053.84;;;0.81;100.00
21588;BME280;10956;48.878;13.316;2022-12-29T02:51:03;94040.13;;;0.74;100.00
21588;BME280;10956;48.878;13.316;2022-12-29T02:53:32;94041.28;;;0.78;100.00
21588;BME280;10956;48.878;13.316;2022-12-29T02:56:17;94038.84;;;0.83;100.00
21588;BME280;10956;48.878;13.316;2022-12-29T02:58:42;94040.03;;;0.87;100.00
21588;BME280;10956;48.878;13.316;2022-12-29T03:01:33;94042.84;;;0.86;100.00
21588;BME280;10956;48.878;13.316;2022-12-29T03:04:28;94037.28;;;0.82;100.00
21588;BME280;10956;48.878;13.316;2022-12-29T03:07:22;94035.09;;;0.79;100.00
21588;BME280;10956;48.878;13.316;2022-12-29T03:13:01;94032.50;;;0.79;100.00
21588;BME280;10956;48.878;13.316;2022-12-29T03:15:50;94034.53;;;0.71;100.00
21588;BME280;10956;48.878;13.316;2022-12-29T03:21:44;94031.13;;;0.77;100.00
21588;BME280;10956;48.878;13.316;2022-12-29T03:24:32;94024.97;;;0.71;100.00
21588;BME280;10956;48.878;13.316;2022-12-29T03:27:01;94025.44;;;0.61;100.00
21588;BME280;10956;48.878;13.316;2022-12-29T03:29:29;94021.88;;;0.56;100.00
21588;BME280;10956;48.878;13.316;2022-12-29T03:31:57;94019.84;;;0.58;100.00
21588;BME280;10956;48.878;13.316;2022-12-29T03:34:25;94014.66;;;0.58;100.00
21588;BME280;10956;48.878;13.316;2022-12-29T03:37:00;94018.84;;;0.59;100.00
21588;BME280;10956;48.878;13.316;2022-12-29T03:39:28;94023.63;;;0.62;100.00
21588;BME280;10956;48.878;13.316;2022-12-29T03:42:03;94021.09;;;0.49;100.00
21588;BME280;10956;48.878;13.316;2022-12-29T03:44:41;94019.56;;;0.41;100.00
21588;BME280;10956;48.878;13.316;2022-12-29T03:47:09;94016.75;;;0.43;100.00
21588;BME280;10956;48.878;13.316;2022-12-29T03:49:35;94021.09;;;0.49;100.00
21588;BME280;10956;48.878;13.316;2022-12-29T03:52:00;94014.28;;;0.54;100.00
21588;BME280;10956;48.878;13.316;2022-12-29T03:54:26;94023.78;;;0.67;100.00
21588;BME280;10956;48.878;13.316;2022-12-29T03:56:51;94034.09;;;0.80;100.00
21588;BME280;10956;48.878;13.316;2022-12-29T03:59:16;94025.88;;;0.83;100.00
21588;BME280;10956;48.878;13.316;2022-12-29T04:01:42;94026.84;;;0.89;100.00
21588;BME280;10956;48.878;13.316;2022-12-29T04:04:08;94030.41;;;0.94;100.00
21588;BME280;10956;48.878;13.316;2022-12-29T04:06:33;94033.16;;;1.00;100.00
21588;BME280;10956;48.878;13.316;2022-12-29T04:08:58;94033.16;;;1.00;100.00
21588;BME280;10956;48.878;13.316;2022-12-29T04:11:24;94032.31;;;1.06;100.00
21588;BME280;10956;48.878;13.316;2022-12-29T04:13:49;94034.69;;;1.07;100.00
21588;BME280;10956;48.878;13.316;2022-12-29T04:16:15;94032.31;;;1.06;100.00
21588;BME280;10956;48.878;13.316;2022-12-29T04:18:40;94027.97;;;1.00;100.00
21588;BME280;10956;48.878;13.316;2022-12-29T04:21:06;94039.78;;;0.95;100.00
21588;BME280;10956;48.878;13.316;2022-12-29T04:23:33;94037.56;;;0.99;100.00
21588;BME280;10956;48.878;13.316;2022-12-29T04:26:00;94033.06;;;1.13;100.00
21588;BME280;10956;48.878;13.316;2022-12-29T04:28:27;94033.81;;;1.20;100.00
21588;BME280;10956;48.878;13.316;2022-12-29T04:30:52;94030.94;;;1.28;100.00
21588;BME280;10956;48.878;13.316;2022-12-29T04:33:18;94027.78;;;1.26;100.00
21588;BME280;10956;48.878;13.316;2022-12-29T04:35:44;94022.91;;;1.36;100.00
21588;BME280;10956;48.878;13.316;2022-12-29T04:38:10;94023.56;;;1.50;100.00
21588;BME280;10956;48.878;13.316;2022-12-29T04:40:38;94028.44;;;1.65;100.00
21588;BME280;10956;48.878;13.316;2022-12-29T04:43:04;94040.56;;;1.71;100.00
21588;BME280;10956;48.878;13.316;2022-12-29T04:45:29;94046.91;;;1.75;100.00
21588;BME280;10956;48.878;13.316;2022-12-29T04:47:55;94028.44;;;1.83;100.00
21588;BME280;10956;48.878;13.316;2022-12-29T04:50:20;94022.81;;;1.86;100.00
21588;BME280;10956;48.878;13.316;2022-12-29T04:52:46;94020.44;;;1.84;100.00
21588;BME280;10956;48.878;13.316;2022-12-29T04:55:11;94020.38;;;1.91;100.00
21588;BME280;10956;48.878;13.316;2022-12-29T04:57:36;94004.63;;;2.04;100.00
21588;BME280;10956;48.878;13.316;2022-12-29T05:00:03;94019.28;;;2.17;100.00
21588;BME280;10956;48.878;13.316;2022-12-29T05:02:28;94006.34;;;2.29;100.00
21588;BME280;10956;48.878;13.316;2022-12-29T05:04:54;93995.63;;;2.37;100.00
21588;BME280;10956;48.878;13.316;2022-12-29T05:07:19;94005.88;;;2.50;100.00
21588;BME280;10956;48.878;13.316;2022-12-29T05:09:44;94002.56;;;2.43;100.00
21588;BME280;10956;48.878;13.316;2022-12-29T05:12:10;94016.56;;;2.42;100.00
21588;BME280;10956;48.878;13.316;2022-12-29T05:14:35;94018.97;;;2.43;100.00
21588;BME280;10956;48.878;13.316;2022-12-29T05:17:01;94025.66;;;2.51;100.00
21588;BME280;10956;48.878;13.316;2022-12-29T05:19:26;94012.34;;;2.59;100.00
21588;BME280;10956;48.878;13.316;2022-12-29T05:21:51;94011.47;;;2.65;100.00
21588;BME280;10956;48.878;13.316;2022-12-29T05:24:17;94004.22;;;2.67;100.00
21588;BME280;10956;48.878;13.316;2022-12-29T05:26:42;94005.81;;;2.68;100.00
21588;BME280;10956;48.878;13.316;2022-12-29T05:29:08;94009.44;;;2.67;100.00
21588;BME280;10956;48.878;13.316;2022-12-29T05:31:33;94003.78;;;2.70;100.00
21588;BME280;10956;48.878;13.316;2022-12-29T05:34:00;93993.19;;;2.83;100.00
21588;BME280;10956;48.878;13.316;2022-12-29T05:36:26;93986.53;;;2.87;100.00
21588;BME280;10956;48.878;13.316;2022-12-29T05:38:51;93987.69;;;3.03;100.00
21588;BME280;10956;48.878;13.316;2022-12-29T05:41:17;93991.06;;;2.92;100.00
21588;BME280;10956;48.878;13.316;2022-12-29T05:43:42;94002.72;;;2.89;100.00
21588;BME280;10956;48.878;13.316;2022-12-29T05:46:07;94002.28;;;2.92;100.00
21588;BME280;10956;48.878;13.316;2022-12-29T05:48:33;94008.63;;;2.97;100.00
21588;BME280;10956;48.878;13.316;2022-12-29T05:50:58;94008.16;;;3.00;100.00
21588;BME280;10956;48.878;13.316;2022-12-29T05:53:24;94009.41;;;2.97;100.00
21588;BME280;10956;48.878;13.316;2022-12-29T05:55:49;93999.34;;;3.01;100.00
21588;BME280;10956;48.878;13.316;2022-12-29T05:58:15;94005.69;;;3.05;100.00
21588;BME280;10956;48.878;13.316;2022-12-29T06:00:41;94004.81;;;3.11;100.00
21588;BME280;10956;48.878;13.316;2022-12-29T06:03:07;93995.28;;;3.05;100.00
21588;BME280;10956;48.878;13.316;2022-12-29T06:05:32;94015.97;;;3.00;100.00
21588;BME280;10956;48.878;13.316;2022-12-29T06:07:57;94010.22;;;2.98;100.00
21588;BME280;10956;48.878;13.316;2022-12-29T06:10:23;94008.94;;;2.88;100.00
21588;BME280;10956;48.878;13.316;2022-12-29T06:12:48;94005.97;;;2.85;100.00
21588;BME280;10956;48.878;13.316;2022-12-29T06:15:14;94006.91;;;2.90;100.00
21588;BME280;10956;48.878;13.316;2022-12-29T06:17:39;94003.41;;;2.97;100.00
21588;BME280;10956;48.878;13.316;2022-12-29T06:20:07;93997.75;;;3.00;100.00
21588;BME280;10956;48.878;13.316;2022-12-29T06:22:32;94006.72;;;3.04;100.00
21588;BME280;10956;48.878;13.316;2022-12-29T06:24:58;94001.38;;;2.99;100.00
21588;BME280;10956;48.878;13.316;2022-12-29T06:27:24;93993.91;;;3.02;100.00
21588;BME280;10956;48.878;13.316;2022-12-29T06:29:49;94012.94;;;3.03;100.00
21588;BME280;10956;48.878;13.316;2022-12-29T06:32:15;94021.88;;;3.07;100.00
21588;BME280;10956;48.878;13.316;2022-12-29T06:34:40;94018.38;;;3.13;100.00
21588;BME280;10956;48.878;13.316;2022-12-29T06:37:06;94001.41;;;3.22;100.00
21588;BME280;10956;48.878;13.316;2022-12-29T06:39:31;94004.16;;;3.27;100.00
21588;BME280;10956;48.878;13.316;2022-12-29T06:41:57;93991.00;;;3.22;100.00
21588;BME280;10956;48.878;13.316;2022-12-29T06:44:23;93994.28;;;3.17;100.00
21588;BME280;10956;48.878;13.316;2022-12-29T06:46:48;93999.84;;;3.21;100.00
21588;BME280;10956;48.878;13.316;2022-12-29T06:49:14;94000.97;;;3.25;100.00
21588;BME280;10956;48.878;13.316;2022-12-29T06:51:39;94009.69;;;3.31;100.00
21588;BME280;10956;48.878;13.316;2022-12-29T06:54:05;94005.97;;;3.38;100.00
21588;BME280;10956;48.878;13.316;2022-12-29T06:56:30;94000.31;;;3.41;100.00
21588;BME280;10956;48.878;13.316;2022-12-29T06:58:56;94000.41;;;3.46;100.00
21588;BME280;10956;48.878;13.316;2022-12-29T07:01:22;94011.97;;;3.50;100.00
21588;BME280;10956;48.878;13.316;2022-12-29T07:03:47;94012.53;;;3.52;100.00
21588;BME280;10956;48.878;13.316;2022-12-29T07:06:13;94002.13;;;3.64;100.00
21588;BME280;10956;48.878;13.316;2022-12-29T07:08:38;94004.59;;;3.71;100.00
21588;BME280;10956;48.878;13.316;2022-12-29T07:11:04;94010.94;;;3.75;100.00
21588;BME280;10956;48.878;13.316;2022-12-29T07:13:30;93993.03;;;3.78;100.00
21588;BME280;10956;48.878;13.316;2022-12-29T07:15:55;93993.38;;;3.82;100.00
21588;BME280;10956;48.878;13.316;2022-12-29T07:18:21;93986.69;;;3.86;100.00
21588;BME280;10956;48.878;13.316;2022-12-29T07:20:46;94007.66;;;3.91;100.00
21588;BME280;10956;48.878;13.316;2022-12-29T07:23:12;94016.72;;;4.00;100.00
21588;BME280;10956;48.878;13.316;2022-12-29T07:25:37;94018.41;;;3.83;100.00
21588;BME280;10956;48.878;13.316;2022-12-29T07:28:03;94025.22;;;3.72;100.00
21588;BME280;10956;48.878;13.316;2022-12-29T07:30:29;94024.66;;;3.70;100.00
21588;BME280;10956;48.878;13.316;2022-12-29T07:32:54;94032.25;;;3.72;100.00
21588;BME280;10956;48.878;13.316;2022-12-29T07:35:19;94034.97;;;3.77;100.00
21588;BME280;10956;48.878;13.316;2022-12-29T07:37:45;94029.88;;;3.82;100.00
21588;BME280;10956;48.878;13.316;2022-12-29T07:40:11;94026.34;;;3.88;100.00
21588;BME280;10956;48.878;13.316;2022-12-29T07:42:38;94021.25;;;3.93;100.00
21588;BME280;10956;48.878;13.316;2022-12-29T07:45:03;94020.56;;;3.98;100.00
21588;BME280;10956;48.878;13.316;2022-12-29T07:47:29;94011.81;;;4.04;100.00
21588;BME280;10956;48.878;13.316;2022-12-29T07:49:54;94014.97;;;4.17;100.00
21588;BME280;10956;48.878;13.316;2022-12-29T07:52:20;94015.19;;;4.28;100.00
21588;BME280;10956;48.878;13.316;2022-12-29T07:54:45;94013.34;;;4.40;100.00
21588;BME280;10956;48.878;13.316;2022-12-29T07:57:11;94021.91;;;4.52;100.00
21588;BME280;10956;48.878;13.316;2022-12-29T07:59:36;94012.03;;;4.54;100.00
21588;BME280;10956;48.878;13.316;2022-12-29T08:02:02;94024.44;;;4.47;100.00
21588;BME280;10956;48.878;13.316;2022-12-29T08:04:27;94027.72;;;4.42;100.00
21588;BME280;10956;48.878;13.316;2022-12-29T08:06:53;94033.19;;;4.41;100.00
21588;BME280;10956;48.878;13.316;2022-12-29T08:09:18;94028.28;;;4.44;100.00
21588;BME280;10956;48.878;13.316;2022-12-29T08:11:44;94031.22;;;4.48;100.00
21588;BME280;10956;48.878;13.316;2022-12-29T08:14:09;94026.66;;;4.55;100.00
21588;BME280;10956;48.878;13.316;2022-12-29T08:16:35;94044.09;;;4.66;100.00
21588;BME280;10956;48.878;13.316;2022-12-29T08:19:01;94038.28;;;4.76;100.00
21588;BME280;10956;48.878;13.316;2022-12-29T08:21:27;94037.41;;;4.70;100.00
21588;BME280;10956;48.878;13.316;2022-12-29T08:23:53;94035.34;;;4.72;100.00
21588;BME280;10956;48.878;13.316;2022-12-29T08:26:18;94032.28;;;4.75;100.00
21588;BME280;10956;48.878;13.316;2022-12-29T08:28:44;94035.91;;;4.74;100.00
21588;BME280;10956;48.878;13.316;2022-12-29T08:31:10;94036.19;;;4.90;100.00
21588;BME280;10956;48.878;13.316;2022-12-29T08:33:35;94040.88;;;5.04;100.00
21588;BME280;10956;48.878;13.316;2022-12-29T08:36:05;94042.41;;;5.17;100.00
21588;BME280;10956;48.878;13.316;2022-12-29T08:38:31;94043.44;;;5.16;100.00
21588;BME280;10956;48.878;13.316;2022-12-29T08:40:57;94051.34;;;5.21;100.00
21588;BME280;10956;48.878;13.316;2022-12-29T08:43:23;94044.63;;;5.25;100.00
21588;BME280;10956;48.878;13.316;2022-12-29T08:45:49;94047.09;;;5.32;100.00
21588;BME280;10956;48.878;13.316;2022-12-29T08:48:14;94051.59;;;5.36;100.00
21588;BME280;10956;48.878;13.316;2022-12-29T08:50:44;94046.47;;;5.41;100.00
21588;BME280;10956;48.878;13.316;2022-12-29T08:53:09;94059.06;;;5.44;100.00
21588;BME280;10956;48.878;13.316;2022-12-29T08:55:35;94053.28;;;5.42;100.00
21588;BME280;10956;48.878;13.316;2022-12-29T08:58:00;94039.97;;;5.44;100.00
21588;BME280;10956;48.878;13.316;2022-12-29T09:00:26;94034.75;;;5.44;100.00
21588;BME280;10956;48.878;13.316;2022-12-29T09:02:51;94025.88;;;5.45;100.00
21588;BME280;10956;48.878;13.316;2022-12-29T09:05:17;94027.94;;;5.43;100.00
21588;BME280;10956;48.878;13.316;2022-12-29T09:07:42;94022.22;;;5.46;100.00
21588;BME280;10956;48.878;13.316;2022-12-29T09:10:08;94022.22;;;5.46;100.00
21588;BME280;10956;48.878;13.316;2022-12-29T09:12:33;94026.19;;;5.48;100.00
21588;BME280;10956;48.878;13.316;2022-12-29T09:14:59;94021.75;;;5.49;100.00
21588;BME280;10956;48.878;13.316;2022-12-29T09:17:24;94037.13;;;5.45;100.00
21588;BME280;10956;48.878;13.316;2022-12-29T09:20:13;94048.53;;;5.39;100.00
21588;BME280;10956;48.878;13.316;2022-12-29T09:22:39;94041.72;;;5.38;100.00
21588;BME280;10956;48.878;13.316;2022-12-29T09:25:05;94047.72;;;5.39;100.00
21588;BME280;10956;48.878;13.316;2022-12-29T09:27:31;94051.94;;;5.40;100.00
21588;BME280;10956;48.878;13.316;2022-12-29T09:29:56;94058.50;;;5.42;100.00
21588;BME280;10956;48.878;13.316;2022-12-29T09:32:22;94059.69;;;5.51;100.00
21588;BME280;10956;48.878;13.316;2022-12-29T09:34:47;94049.56;;;5.38;100.00
21588;BME280;10956;48.878;13.316;2022-12-29T09:37:13;94052.16;;;5.38;100.00
21588;BME280;10956;48.878;13.316;2022-12-29T09:39:38;94065.16;;;5.33;100.00
21588;BME280;10956;48.878;13.316;2022-12-29T09:42:14;94058.25;;;5.27;100.00
21588;BME280;10956;48.878;13.316;2022-12-29T09:47:53;94044.84;;;5.07;100.00
21588;BME280;10956;48.878;13.316;2022-12-29T09:50:33;94032.91;;;5.11;100.00
21588;BME280;10956;48.878;13.316;2022-12-29T09:53:45;94037.56;;;5.09;100.00
21588;BME280;10956;48.878;13.316;2022-12-29T09:56:19;94032.34;;;5.09;100.00
21588;BME280;10956;48.878;13.316;2022-12-29T09:58:58;94027.75;;;5.16;100.00
21588;BME280;10956;48.878;13.316;2022-12-29T10:01:41;94028.66;;;5.38;100.00
21588;BME280;10956;48.878;13.316;2022-12-29T10:04:07;94026.81;;;5.56;100.00
21588;BME280;10956;48.878;13.316;2022-12-29T10:06:54;94010.50;;;5.65;100.00
21588;BME280;10956;48.878;13.316;2022-12-29T10:15:14;94014.69;;;5.83;100.00
21588;BME280;10956;48.878;13.316;2022-12-29T10:20:54;94016.38;;;5.89;100.00
21588;BME280;10956;48.878;13.316;2022-12-29T10:23:31;94005.59;;;5.69;100.00
21588;BME280;10956;48.878;13.316;2022-12-29T10:25:59;94007.34;;;5.63;100.00
21588;BME280;10956;48.878;13.316;2022-12-29T10:31:00;94001.72;;;5.55;100.00
21588;BME280;10956;48.878;13.316;2022-12-29T10:33:34;93996.72;;;5.53;100.00
21588;BME280;10956;48.878;13.316;2022-12-29T10:36:09;93994.97;;;5.59;100.00
21588;BME280;10956;48.878;13.316;2022-12-29T10:38:47;93999.66;;;5.57;100.00
21588;BME280;10956;48.878;13.316;2022-12-29T10:41:38;94004.97;;;5.62;100.00
21588;BME280;10956;48.878;13.316;2022-12-29T10:44:09;93993.22;;;5.64;100.00
21588;BME280;10956;48.878;13.316;2022-12-29T10:46:38;93991.47;;;5.70;100.00
21588;BME280;10956;48.878;13.316;2022-12-29T10:49:05;94009.22;;;5.68;100.00
21588;BME280;10956;48.878;13.316;2022-12-29T10:51:38;93999.88;;;5.72;100.00
21588;BME280;10956;48.878;13.316;2022-12-29T10:54:11;93993.38;;;5.74;100.00
21588;BME280;10956;48.878;13.316;2022-12-29T10:56:44;93982.91;;;5.74;100.00
21588;BME280;10956;48.878;13.316;2022-12-29T10:59:21;93977.69;;;5.91;100.00
21588;BME280;10956;48.878;13.316;2022-12-29T11:04:56;93972.72;;;6.11;100.00
21588;BME280;10956;48.878;13.316;2022-12-29T11:07:25;93976.97;;;6.18;100.00
21588;BME280;10956;48.878;13.316;2022-12-29T11:09:51;93961.41;;;6.28;100.00
21588;BME280;10956;48.878;13.316;2022-12-29T11:12:24;93965.72;;;6.39;100.00
21588;BME280;10956;48.878;13.316;2022-12-29T11:17:45;93957.19;;;6.48;100.00
21588;BME280;10956;48.878;13.316;2022-12-29T11:20:37;93956.19;;;6.55;100.00
21588;BME280;10956;48.878;13.316;2022-12-29T11:23:05;93964.41;;;6.63;100.00
21588;BME280;10956;48.878;13.316;2022-12-29T11:25:45;93957.09;;;6.65;100.00
21588;BME280;10956;48.878;13.316;2022-12-29T11:28:15;93948.69;;;6.63;100.00
21588;BME280;10956;48.878;13.316;2022-12-29T11:30:42;93944.00;;;6.65;100.00
21588;BME280;10956;48.878;13.316;2022-12-29T11:33:08;93940.88;;;6.68;100.00
21588;BME280;10956;48.878;13.316;2022-12-29T11:35:41;93940.38;;;6.71;100.00
21588;BME280;10956;48.878;13.316;2022-12-29T11:38:20;93925.19;;;6.68;100.00
21588;BME280;10956;48.878;13.316;2022-12-29T11:40:47;93917.56;;;6.67;100.00
21588;BME280;10956;48.878;13.316;2022-12-29T11:43:32;93923.63;;;6.72;100.00
21588;BME280;10956;48.878;13.316;2022-12-29T11:45:59;93925.50;;;6.77;100.00
21588;BME280;10956;48.878;13.316;2022-12-29T11:48:31;93933.16;;;6.84;100.00
21588;BME280;10956;48.878;13.316;2022-12-29T11:50:58;93930.88;;;6.92;100.00
21588;BME280;10956;48.878;13.316;2022-12-29T11:56:01;93932.19;;;6.90;100.00
21588;BME280;10956;48.878;13.316;2022-12-29T11:58:32;93934.75;;;6.85;100.00
21588;BME280;10956;48.878;13.316;2022-12-29T12:01:02;93935.53;;;6.85;100.00
21588;BME280;10956;48.878;13.316;2022-12-29T12:03:32;93912.47;;;6.82;100.00
21588;BME280;10956;48.878;13.316;2022-12-29T12:06:01;93920.03;;;6.78;100.00
21588;BME280;10956;48.878;13.316;2022-12-29T12:13:52;93912.72;;;6.80;100.00
21588;BME280;10956;48.878;13.316;2022-12-29T12:16:33;93911.91;;;6.80;100.00
21588;BME280;10956;48.878;13.316;2022-12-29T12:21:59;93913.72;;;6.74;100.00
21588;BME280;10956;48.878;13.316;2022-12-29T12:24:42;93903.72;;;6.71;100.00
21588;BME280;10956;48.878;13.316;2022-12-29T12:27:14;93912.72;;;6.80;100.00
21588;BME280;10956;48.878;13.316;2022-12-29T12:29:53;93907.06;;;6.94;100.00
21588;BME280;10956;48.878;13.316;2022-12-29T12:32:29;93905.06;;;7.06;100.00
21588;BME280;10956;48.878;13.316;2022-12-29T12:34:59;93899.94;;;7.21;100.00
21588;BME280;10956;48.878;13.316;2022-12-29T12:42:51;93905.78;;;7.33;100.00
21588;BME280;10956;48.878;13.316;2022-12-29T12:48:32;93904.72;;;7.29;100.00
21588;BME280;10956;48.878;13.316;2022-12-29T12:56:52;93900.47;;;7.23;100.00
21588;BME280;10956;48.878;13.316;2022-12-29T13:02:30;93892.56;;;7.18;100.00
21588;BME280;10956;48.878;13.316;2022-12-29T13:05:05;93894.44;;;7.23;100.00
21588;BME280;10956;48.878;13.316;2022-12-29T13:07:54;93899.47;;;7.29;100.00
21588;BME280;10956;48.878;13.316;2022-12-29T13:10:40;93884.81;;;7.33;100.00
21588;BME280;10956;48.878;13.316;2022-12-29T13:19:08;93882.72;;;7.35;100.00
21588;BME280;10956;48.878;13.316;2022-12-29T13:25:19;93882.72;;;7.35;100.00
21588;BME280;10956;48.878;13.316;2022-12-29T13:30:10;93889.72;;;7.20;100.00
21588;BME280;10956;48.878;13.316;2022-12-29T13:37:53;93888.78;;;6.99;100.00
21588;BME280;10956;48.878;13.316;2022-12-29T13:40:23;93903.63;;;6.88;100.00
21588;BME280;10956;48.878;13.316;2022-12-29T13:42:50;93897.78;;;6.81;100.00
21588;BME280;10956;48.878;13.316;2022-12-29T13:45:18;93900.06;;;6.72;100.00
21588;BME280;10956;48.878;13.316;2022-12-29T13:48:12;93895.81;;;6.66;100.00
21588;BME280;10956;48.878;13.316;2022-12-29T13:50:40;93905.22;;;6.62;100.00
21588;BME280;10956;48.878;13.316;2022-12-29T13:53:29;93903.34;;;6.58;100.00
21588;BME280;10956;48.878;13.316;2022-12-29T13:56:14;93906.16;;;6.51;100.00
21588;BME280;10956;48.878;13.316;2022-12-29T13:58:54;93903.25;;;6.47;100.00
21588;BME280;10956;48.878;13.316;2022-12-29T14:03:58;93910.75;;;6.39;100.00
21588;BME280;10956;48.878;13.316;2022-12-29T14:06:29;93917.81;;;6.38;100.00
21588;BME280;10956;48.878;13.316;2022-12-29T14:09:07;93913.13;;;6.40;100.00
21588;BME280;10956;48.878;13.316;2022-12-29T14:11:50;93905.50;;;6.39;100.00
21588;BME280;10956;48.878;13.316;2022-12-29T14:14:24;93908.13;;;6.39;100.00
21588;BME280;10956;48.878;13.316;2022-12-29T14:16:51;93906.00;;;6.36;100.00
21588;BME280;10956;48.878;13.316;2022-12-29T14:19:23;93906.50;;;6.33;100.00
21588;BME280;10956;48.878;13.316;2022-12-29T14:21:54;93905.41;;;6.29;100.00
21588;BME280;10956;48.878;13.316;2022-12-29T14:26:58;93900.56;;;6.15;100.00
21588;BME280;10956;48.878;13.316;2022-12-29T14:31:49;93913.88;;;6.14;100.00
21588;BME280;10956;48.878;13.316;2022-12-29T14:34:16;93908.94;;;6.18;100.00
21588;BME280;10956;48.878;13.316;2022-12-29T14:37:02;93913.69;;;6.21;100.00
21588;BME280;10956;48.878;13.316;2022-12-29T14:39:40;93905.28;;;6.19;100.00
21588;BME280;10956;48.878;13.316;2022-12-29T14:47:18;93923.31;;;5.93;100.00
21588;BME280;10956;48.878;13.316;2022-12-29T14:52:56;93917.38;;;5.81;100.00